Time;durP1;ratioP1;P1;durP2;ratioP2;P2;SDS_P1;SDS_P2;PMS_P1;PMS_P2;Temp;Humidity;BMP_temperature;BMP_pressure;BME280_temperature;BME280_humidity;BME280_pressure;Samples;Min_cycle;Max_cycle;Signal;HPM_P1;HPM_P2
2023/03/06 00:00:41;;;;;;;18.88;11.57;;;;;;;1.04;100.00;100807.81;5054883;28;20040;-65
2023/03/06 00:03:06;;;;;;;15.38;11.13;;;;;;;1.01;100.00;100802.53;5053824;28;20037;-64
2023/03/06 00:05:33;;;;;;;17.33;12.43;;;;;;;0.97;100.00;100798.03;5054215;28;20136;-65
2023/03/06 00:07:58;;;;;;;20.02;12.55;;;;;;;0.97;100.00;100798.03;5054625;28;20107;-65
2023/03/06 00:10:27;;;;;;;22.25;13.27;;;;;;;0.94;100.00;100797.81;5054643;28;20029;-65
2023/03/06 00:12:57;;;;;;;18.45;13.35;;;;;;;0.93;100.00;100794.41;5054368;28;20037;-64
2023/03/06 00:15:24;;;;;;;21.98;13.93;;;;;;;0.90;100.00;100791.63;5054827;28;20469;-64
2023/03/06 00:17:49;;;;;;;21.55;14.38;;;;;;;0.86;100.00;100792.22;5054500;28;20465;-64
2023/03/06 00:20:15;;;;;;;23.20;13.55;;;;;;;0.86;100.00;100779.53;5053900;28;20029;-65
2023/03/06 00:22:41;;;;;;;23.30;14.90;;;;;;;0.84;100.00;100780.19;5054545;28;20036;-65
2023/03/06 00:25:11;;;;;;;19.80;14.38;;;;;;;0.79;100.00;100782.44;5054236;28;20025;-65
2023/03/06 00:27:36;;;;;;;23.38;15.02;;;;;;;0.80;100.00;100789.25;5054209;28;20013;-64
2023/03/06 00:30:03;;;;;;;23.85;16.20;;;;;;;0.81;100.00;100784.31;5054204;28;20035;-64
2023/03/06 00:32:28;;;;;;;23.65;15.38;;;;;;;0.83;100.00;100776.78;5054893;28;20037;-64
2023/03/06 00:34:54;;;;;;;22.48;15.90;;;;;;;0.86;100.00;100774.44;5053803;28;20060;-64
2023/03/06 00:37:21;;;;;;;25.10;16.48;;;;;;;0.87;100.00;100777.88;5054238;28;20103;-65
2023/03/06 00:39:48;;;;;;;23.55;15.90;;;;;;;0.89;100.00;100771.25;5054343;28;20033;-64
2023/03/06 00:42:14;;;;;;;27.10;16.50;;;;;;;0.88;100.00;100767.84;5053738;28;20063;-64
2023/03/06 00:44:39;;;;;;;26.17;16.83;;;;;;;0.85;100.00;100760.00;5054483;28;20048;-64
2023/03/06 00:47:05;;;;;;;23.85;15.13;;;;;;;0.83;100.00;100751.44;5053938;28;20440;-65
2023/03/06 00:49:30;;;;;;;26.67;17.20;;;;;;;0.77;100.00;100748.47;5054254;28;20067;-65
2023/03/06 00:51:55;;;;;;;28.75;17.35;;;;;;;0.72;100.00;100753.22;5053417;28;20200;-65
2023/03/06 00:54:20;;;;;;;26.88;17.65;;;;;;;0.72;100.00;100754.88;5054045;28;20044;-65
2023/03/06 00:56:46;;;;;;;28.60;18.35;;;;;;;0.69;100.00;100759.75;5053457;28;20421;-65
2023/03/06 00:59:11;;;;;;;31.50;18.40;;;;;;;0.67;100.00;100756.22;5053609;28;20028;-65
2023/03/06 01:01:36;;;;;;;28.05;19.13;;;;;;;0.60;100.00;100747.34;5054112;28;20028;-64
2023/03/06 01:04:02;;;;;;;29.63;17.60;;;;;;;0.53;100.00;100748.56;5052957;28;20120;-64
2023/03/06 01:06:28;;;;;;;29.60;19.35;;;;;;;0.52;100.00;100745.91;5053734;28;20032;-65
2023/03/06 01:08:53;;;;;;;31.98;20.02;;;;;;;0.46;100.00;100744.72;5052959;28;20032;-65
2023/03/06 01:11:18;;;;;;;34.00;21.23;;;;;;;0.51;100.00;100751.78;5053462;28;20021;-64
2023/03/06 01:13:44;;;;;;;30.42;20.35;;;;;;;0.50;100.00;100743.28;5053487;28;20032;-64
2023/03/06 01:16:12;;;;;;;29.70;21.02;;;;;;;0.48;100.00;100739.78;5052578;28;20037;-64
2023/03/06 01:18:38;;;;;;;35.25;21.85;;;;;;;0.48;100.00;100747.38;5053640;28;20024;-64
2023/03/06 01:21:04;;;;;;;37.65;21.40;;;;;;;0.42;100.00;100734.28;5053122;28;20025;-65
2023/03/06 01:23:30;;;;;;;37.58;22.35;;;;;;;0.37;100.00;100738.16;5052933;28;20017;-65
2023/03/06 01:25:55;;;;;;;33.05;22.00;;;;;;;0.33;100.00;100737.06;5053109;28;20491;-64
2023/03/06 01:28:21;;;;;;;37.25;21.17;;;;;;;0.30;100.00;100735.19;5053486;28;20049;-64
2023/03/06 01:30:46;;;;;;;33.05;21.73;;;;;;;0.25;100.00;100734.00;5052927;28;20025;-65
2023/03/06 01:33:11;;;;;;;37.53;23.10;;;;;;;0.21;100.00;100737.09;5052975;28;20056;-64
2023/03/06 01:35:37;;;;;;;36.63;23.42;;;;;;;0.20;100.00;100731.94;5053471;28;20025;-64
2023/03/06 01:38:03;;;;;;;35.92;23.27;;;;;;;0.17;100.00;100730.06;5052306;28;20090;-65
2023/03/06 01:40:31;;;;;;;39.60;25.63;;;;;;;0.16;100.00;100723.22;5053293;28;20029;-65
2023/03/06 01:42:56;;;;;;;;;;;;;;;0.23;100.00;100725.38;5053316;28;20025;-65
2023/03/06 01:45:21;;;;;;;48.60;25.83;;;;;;;0.11;100.00;100724.56;5052858;28;19997;-65
2023/03/06 01:47:47;;;;;;;38.63;24.70;;;;;;;0.08;100.00;100716.72;5053086;28;20024;-64
2023/03/06 01:50:12;;;;;;;39.20;25.45;;;;;;;0.04;100.00;100709.69;5052721;28;20534;-64
2023/03/06 01:52:49;;;;;;;41.40;25.23;;;;;;;0.01;100.00;100719.63;5052426;28;20025;-65
2023/03/06 01:55:25;;;;;;;45.65;26.55;;;;;;;-0.05;100.00;100710.81;5052578;28;20029;-65
2023/03/06 01:57:56;;;;;;;40.55;25.30;;;;;;;-0.09;100.00;100713.91;5053093;28;20031;-65
2023/03/06 02:00:24;;;;;;;41.53;26.65;;;;;;;-0.12;100.00;100701.00;5052366;28;20024;-65
2023/03/06 02:03:03;;;;;;;42.47;26.48;;;;;;;-0.14;100.00;100705.13;5052412;28;20147;-64
2023/03/06 02:05:28;;;;;;;50.45;28.75;;;;;;;-0.18;100.00;100704.00;5052433;28;20039;-65
2023/03/06 02:07:55;;;;;;;45.53;27.05;;;;;;;-0.21;100.00;100707.97;5052838;28;20025;-65
2023/03/06 02:10:20;;;;;;;44.78;28.15;;;;;;;-0.21;100.00;100695.31;5053187;28;20024;-65
2023/03/06 02:12:48;;;;;;;47.20;28.55;;;;;;;-0.28;100.00;100690.59;5052175;28;20036;-64
2023/03/06 02:15:17;;;;;;;49.80;28.90;;;;;;;-0.34;100.00;100691.94;5052312;28;20037;-65
2023/03/06 02:17:45;;;;;;;48.25;28.85;;;;;;;-0.34;100.00;100691.94;5052566;28;20104;-64
2023/03/06 02:20:21;;;;;;;53.25;30.55;;;;;;;-0.34;100.00;100681.81;5051784;28;20033;-64
2023/03/06 02:22:49;;;;;;;52.63;29.70;;;;;;;-0.39;100.00;100675.53;5052284;28;20380;-64
2023/03/06 02:25:36;;;;;;;49.22;28.33;;;;;;;-0.41;100.00;100681.25;5052366;28;20037;-64
2023/03/06 02:28:03;;;;;;;49.22;30.30;;;;;;;-0.43;100.00;100681.13;5051074;28;20032;-65
2023/03/06 02:30:30;;;;;;;57.20;30.90;;;;;;;-0.47;100.00;100673.22;5052646;28;20025;-65
2023/03/06 02:32:55;;;;;;;52.17;30.20;;;;;;;-0.46;100.00;100670.78;5052272;28;20044;-65
2023/03/06 02:35:30;;;;;;;53.40;30.60;;;;;;;-0.50;100.00;100669.69;5052131;28;20017;-65
2023/03/06 02:37:57;;;;;;;56.45;29.92;;;;;;;-0.52;100.00;100670.34;5052058;28;20021;-64
2023/03/06 02:40:23;;;;;;;52.38;29.58;;;;;;;-0.53;100.00;100668.59;5051839;28;20374;-65
2023/03/06 02:42:55;;;;;;;55.60;30.60;;;;;;;-0.56;100.00;100665.84;5052749;28;20029;-65
2023/03/06 02:45:31;;;;;;;52.85;29.50;;;;;;;-0.61;100.00;100667.16;5052214;28;20063;-65
2023/03/06 02:47:56;;;;;;;48.33;29.77;;;;;;;-0.63;100.00;100663.63;5051490;28;20469;-64
2023/03/06 02:50:21;;;;;;;51.50;29.23;;;;;;;-0.65;100.00;100657.59;5052257;28;20051;-65
2023/03/06 02:52:47;;;;;;;47.60;28.40;;;;;;;-0.68;100.00;100660.78;5052282;28;20423;-65
2023/03/06 02:55:12;;;;;;;57.60;30.45;;;;;;;-0.68;100.00;100666.72;5051636;28;20480;-65
2023/03/06 02:57:37;;;;;;;53.05;29.52;;;;;;;-0.73;100.00;100664.66;5052314;28;20032;-64
2023/03/06 03:00:03;;;;;;;50.90;30.08;;;;;;;-0.71;100.00;100663.09;5052220;28;20025;-64
2023/03/06 03:02:29;;;;;;;53.40;29.15;;;;;;;-0.77;100.00;100665.19;5051810;28;20040;-64
2023/03/06 03:04:54;;;;;;;57.90;31.00;;;;;;;-0.70;100.00;100662.31;5051617;28;20404;-65
2023/03/06 03:07:19;;;;;;;52.47;29.75;;;;;;;-0.77;100.00;100650.88;5052285;28;20358;-64
2023/03/06 03:09:45;;;;;;;53.80;29.20;;;;;;;-0.80;100.00;100647.25;5051656;28;20027;-64
2023/03/06 03:12:10;;;;;;;50.45;28.83;;;;;;;-0.82;100.00;100644.63;5051782;28;20029;-65
2023/03/06 03:14:35;;;;;;;52.85;29.42;;;;;;;-0.87;100.00;100636.69;5052332;28;20052;-65
2023/03/06 03:17:01;;;;;;;54.55;29.65;;;;;;;-0.88;100.00;100639.09;5051310;28;20029;-65
2023/03/06 03:19:26;;;;;;;53.92;30.33;;;;;;;-0.89;100.00;100643.31;5051917;28;20021;-64
2023/03/06 03:21:52;;;;;;;52.05;27.58;;;;;;;-0.96;100.00;100640.22;5052113;28;20029;-64
2023/03/06 03:24:17;;;;;;;52.03;29.65;;;;;;;-0.90;100.00;100635.59;5051195;28;20076;-65
2023/03/06 03:26:42;;;;;;;54.22;29.35;;;;;;;-0.91;100.00;100638.91;5052062;28;20105;-65
2023/03/06 03:29:09;;;;;;;53.47;28.77;;;;;;;-0.92;100.00;100632.06;5051938;28;20044;-65
2023/03/06 03:31:35;;;;;;;58.50;31.33;;;;;;;-0.96;100.00;100636.03;5051572;28;20472;-65
2023/03/06 03:34:00;;;;;;;59.08;31.13;;;;;;;-0.97;100.00;100619.06;5051555;28;20104;-65
2023/03/06 03:36:26;;;;;;;56.88;30.80;;;;;;;-0.95;100.00;100621.75;5051888;28;20028;-64
2023/03/06 03:38:51;;;;;;;55.83;30.23;;;;;;;-0.97;100.00;100613.16;5052002;28;20029;-65
2023/03/06 03:41:17;;;;;;;57.17;30.58;;;;;;;-0.95;100.00;100619.22;5054910;28;20526;-65
2023/03/06 03:43:42;;;;;;;62.33;31.45;;;;;;;-0.92;100.00;100604.25;5054940;28;20039;-65
2023/03/06 03:46:07;;;;;;;60.53;31.27;;;;;;;-0.92;100.00;100604.25;5055141;28;20086;-65
2023/03/06 03:48:33;;;;;;;58.83;31.77;;;;;;;-0.91;100.00;100604.34;5055118;28;20044;-65
2023/03/06 03:51:10;;;;;;;56.03;30.67;;;;;;;-0.88;100.00;100596.09;5054526;28;20029;-65
2023/03/06 03:53:35;;;;;;;61.65;30.88;;;;;;;-0.89;100.00;100592.69;5055186;28;20029;-65
2023/03/06 03:56:00;;;;;;;60.47;30.80;;;;;;;-0.89;100.00;100586.75;5055121;28;20380;-65
2023/03/06 03:58:26;;;;;;;62.58;30.92;;;;;;;-0.91;100.00;100585.78;5055024;28;20032;-64
2023/03/06 04:00:51;;;;;;;52.33;28.85;;;;;;;-0.92;100.00;100591.59;5054919;28;20025;-64
2023/03/06 04:03:17;;;;;;;56.28;30.55;;;;;;;-0.92;100.00;100584.88;5054673;28;20037;-64
2023/03/06 04:05:42;;;;;;;63.47;31.20;;;;;;;-0.91;100.00;100583.25;5054399;28;20116;-65
2023/03/06 04:08:07;;;;;;;58.42;30.75;;;;;;;-0.91;100.00;100578.19;5054544;28;20527;-64
2023/03/06 04:10:33;;;;;;;61.58;29.90;;;;;;;-0.91;100.00;100583.25;5055377;28;20033;-65
2023/03/06 04:12:58;;;;;;;63.60;31.27;;;;;;;-0.92;100.00;100581.47;5053943;28;20483;-65
2023/03/06 04:15:24;;;;;;;62.25;32.35;;;;;;;-0.91;100.00;100576.53;5054746;28;20033;-65
2023/03/06 04:17:50;;;;;;;63.00;32.97;;;;;;;-0.90;100.00;100574.88;5055133;28;20025;-65
2023/03/06 04:20:15;;;;;;;69.97;34.70;;;;;;;-0.88;100.00;100574.22;5053907;28;20024;-65
2023/03/06 04:22:40;;;;;;;69.40;33.80;;;;;;;-0.86;100.00;100577.72;5054396;28;20032;-65
2023/03/06 04:25:06;;;;;;;67.97;33.45;;;;;;;-0.86;100.00;100574.31;5054341;28;20100;-65
2023/03/06 04:27:32;;;;;;;76.60;33.92;;;;;;;-0.84;100.00;100567.72;5054207;28;20033;-65
2023/03/06 04:29:57;;;;;;;69.18;33.70;;;;;;;-0.84;100.00;100565.19;5054160;28;20021;-65
2023/03/06 04:32:23;;;;;;;78.57;35.47;;;;;;;-0.80;100.00;100569.72;5054451;28;20033;-65
2023/03/06 04:34:48;;;;;;;79.70;37.05;;;;;;;-0.79;100.00;100568.91;5053999;28;20028;-65
2023/03/06 04:37:19;;;;;;;76.25;36.10;;;;;;;-0.75;100.00;100562.41;5053838;28;20025;-64
2023/03/06 04:39:45;;;;;;;89.22;36.75;;;;;;;-0.73;100.00;100571.88;5054602;28;20060;-64
2023/03/06 04:42:11;;;;;;;82.57;38.97;;;;;;;-0.71;100.00;100565.28;5053566;28;20381;-65
2023/03/06 04:44:36;;;;;;;82.60;37.47;;;;;;;-0.69;100.00;100556.13;5054191;28;20074;-65
2023/03/06 04:47:01;;;;;;;82.68;37.53;;;;;;;-0.67;100.00;100554.59;5053493;28;20025;-65
2023/03/06 04:49:27;;;;;;;86.60;38.47;;;;;;;-0.61;100.00;100553.28;5053560;28;20426;-65
2023/03/06 04:51:52;;;;;;;96.93;40.50;;;;;;;-0.62;100.00;100554.94;5054010;28;20552;-65
2023/03/06 04:54:17;;;;;;;95.75;41.45;;;;;;;-0.60;100.00;100544.91;5053436;28;20029;-65
2023/03/06 04:56:42;;;;;;;94.15;40.63;;;;;;;-0.59;100.00;100551.75;5053982;28;20366;-65
2023/03/06 04:59:08;;;;;;;92.65;41.22;;;;;;;-0.59;100.00;100544.16;5053743;28;20021;-65
2023/03/06 05:01:33;;;;;;;99.95;42.45;;;;;;;-0.57;100.00;100551.06;5053800;28;20016;-65
2023/03/06 05:03:58;;;;;;;97.40;42.85;;;;;;;-0.55;100.00;100552.03;5053291;28;20550;-65
2023/03/06 05:06:24;;;;;;;98.05;43.70;;;;;;;-0.54;100.00;100545.34;5053906;28;20032;-65
2023/03/06 05:08:49;;;;;;;106.00;44.35;;;;;;;-0.52;100.00;100543.78;5053210;28;20017;-64
2023/03/06 05:11:14;;;;;;;104.00;44.85;;;;;;;-0.50;100.00;100552.38;5053319;28;20147;-64
2023/03/06 05:13:40;;;;;;;103.90;44.97;;;;;;;-0.48;100.00;100540.69;5053825;28;20036;-65
2023/03/06 05:16:06;;;;;;;111.20;46.83;;;;;;;-0.47;100.00;100539.91;5052717;28;20013;-65
2023/03/06 05:18:32;;;;;;;112.40;47.30;;;;;;;-0.44;100.00;100539.25;5053422;28;20091;-65
2023/03/06 05:20:58;;;;;;;115.47;49.55;;;;;;;-0.42;100.00;100538.56;5053247;28;20051;-65
2023/03/06 05:23:28;;;;;;;120.22;50.85;;;;;;;-0.40;100.00;100531.97;5053113;28;20388;-64
2023/03/06 05:25:54;;;;;;;126.05;51.00;;;;;;;-0.38;100.00;100527.00;5053256;28;20090;-65
2023/03/06 05:28:19;;;;;;;118.45;47.92;;;;;;;-0.37;100.00;100531.31;5053659;28;20025;-64
2023/03/06 05:30:45;;;;;;;123.82;49.75;;;;;;;-0.35;100.00;100530.63;5052976;28;20032;-64
2023/03/06 05:33:10;;;;;;;123.15;52.15;;;;;;;-0.36;100.00;100526.34;5052692;28;20357;-65
2023/03/06 05:35:35;;;;;;;118.53;51.58;;;;;;;-0.35;100.00;100528.09;5053309;28;20029;-65
2023/03/06 05:38:01;;;;;;;85.60;19.13;;;;;;;-0.28;100.00;100524.31;5052701;28;20021;-65
2023/03/06 05:40:26;;;;;;;112.53;51.15;;;;;;;-0.33;100.00;100518.06;5053254;28;20460;-64
2023/03/06 05:42:51;;;;;;;122.93;53.10;;;;;;;-0.32;100.00;100521.47;5053308;28;20029;-65
2023/03/06 05:45:17;;;;;;;126.40;52.50;;;;;;;-0.31;100.00;100526.66;5052816;28;20530;-65
2023/03/06 05:47:42;;;;;;;127.10;52.42;;;;;;;-0.31;100.00;100523.22;5052919;28;20067;-65
2023/03/06 05:50:09;;;;;;;137.02;56.85;;;;;;;-0.29;100.00;100521.69;5052786;28;20029;-65
2023/03/06 05:52:35;;;;;;;131.00;54.88;;;;;;;-0.29;100.00;100516.63;5052883;28;20032;-65
2023/03/06 05:55:00;;;;;;;128.25;53.30;;;;;;;-0.27;100.00;100517.59;5052711;28;20020;-64
2023/03/06 05:57:25;;;;;;;132.35;54.35;;;;;;;-0.27;100.00;100515.06;5052350;28;20083;-65
2023/03/06 05:59:51;;;;;;;130.68;54.58;;;;;;;-0.26;100.00;100516.81;5052747;28;20058;-64
2023/03/06 06:02:17;;;;;;;128.90;54.63;;;;;;;-0.26;100.00;100512.66;5051765;28;20033;-64
2023/03/06 06:04:44;;;;;;;131.52;55.08;;;;;;;-0.25;100.00;100516.06;5052003;28;20396;-65
2023/03/06 06:07:13;;;;;;;143.93;56.83;;;;;;;-0.23;100.00;100517.06;5052444;28;20025;-65
2023/03/06 06:09:38;;;;;;;139.55;57.10;;;;;;;-0.21;100.00;100525.63;5052883;28;20036;-64
2023/03/06 06:12:03;;;;;;;143.23;59.88;;;;;;;-0.22;100.00;100516.25;5051907;28;20037;-65
2023/03/06 06:14:32;;;;;;;130.52;54.67;;;;;;;-0.21;100.00;100515.47;5052441;28;20434;-65
2023/03/06 06:16:57;;;;;;;133.55;57.22;;;;;;;-0.20;100.00;100512.19;5052480;28;20051;-64
2023/03/06 06:19:23;;;;;;;128.27;56.85;;;;;;;-0.20;100.00;100513.03;5052129;28;20457;-64
2023/03/06 06:21:50;;;;;;;134.02;57.30;;;;;;;-0.16;100.00;100519.22;5052319;28;20021;-64
2023/03/06 06:24:17;;;;;;;131.05;54.17;;;;;;;-0.17;100.00;100510.75;5052509;28;20427;-65
2023/03/06 06:26:43;;;;;;;137.93;57.65;;;;;;;-0.14;100.00;100514.22;5051841;28;20473;-65
2023/03/06 06:29:10;;;;;;;131.52;55.80;;;;;;;-0.13;100.00;100519.44;5052092;28;20040;-65
2023/03/06 06:31:35;;;;;;;128.88;55.88;;;;;;;-0.14;100.00;100517.66;5052384;28;20104;-65
2023/03/06 06:34:02;;;;;;;137.93;56.92;;;;;;;-0.11;100.00;100509.41;5051841;28;20061;-65
2023/03/06 06:36:27;;;;;;;131.63;56.33;;;;;;;-0.10;100.00;100511.16;5052379;28;20138;-65
2023/03/06 06:38:53;;;;;;;137.07;57.75;;;;;;;-0.10;100.00;100511.16;5052389;28;20473;-64
2023/03/06 06:41:18;;;;;;;136.98;55.75;;;;;;;-0.10;100.00;100514.56;5051961;28;20036;-64
2023/03/06 06:43:43;;;;;;;131.40;58.90;;;;;;;-0.07;100.00;100514.75;5052219;28;20429;-65
2023/03/06 06:46:08;;;;;;;133.40;56.20;;;;;;;-0.04;100.00;100520.03;5051887;28;20025;-64
2023/03/06 06:48:36;;;;;;;140.35;58.30;;;;;;;-0.01;100.00;100512.63;5051829;28;20103;-65
2023/03/06 06:51:01;;;;;;;140.30;58.22;;;;;;;0.02;100.00;100513.63;5052082;28;20092;-65
2023/03/06 06:53:26;;;;;;;138.60;57.42;;;;;;;0.06;100.00;100511.38;5051900;28;20121;-65
2023/03/06 06:55:52;;;;;;;142.15;59.03;;;;;;;0.09;100.00;100516.66;5052301;28;20027;-65
2023/03/06 06:58:17;;;;;;;128.88;56.03;;;;;;;0.15;100.00;100516.19;5052098;28;20110;-65
2023/03/06 07:00:43;;;;;;;130.32;54.65;;;;;;;0.20;100.00;100519.91;5051523;28;20103;-64
2023/03/06 07:03:11;;;;;;;137.45;58.55;;;;;;;0.25;100.00;100523.63;5051317;28;20439;-64
2023/03/06 07:05:36;;;;;;;137.80;58.78;;;;;;;0.32;100.00;100519.81;5052087;28;20500;-64
2023/03/06 07:08:01;;;;;;;129.02;56.95;;;;;;;0.33;100.00;100530.06;5051404;28;20105;-65
2023/03/06 07:10:27;;;;;;;133.52;56.83;;;;;;;0.36;100.00;100531.91;5052073;28;20385;-64
2023/03/06 07:12:53;;;;;;;127.38;57.63;;;;;;;0.38;100.00;100521.91;5052854;28;20033;-64
2023/03/06 07:15:18;;;;;;;133.90;57.75;;;;;;;0.42;100.00;100526.38;5055319;28;20029;-64
2023/03/06 07:17:43;;;;;;;141.82;59.47;;;;;;;0.45;100.00;100524.03;5055898;28;20180;-64
2023/03/06 07:20:09;;;;;;;138.25;59.13;;;;;;;0.46;100.00;100524.13;5055775;28;20028;-64
2023/03/06 07:22:35;;;;;;;134.43;57.95;;;;;;;0.47;100.00;100525.03;5055421;28;20095;-65
2023/03/06 07:25:02;;;;;;;137.35;59.97;;;;;;;0.51;100.00;100526.97;5055097;28;20382;-64
2023/03/06 07:27:27;;;;;;;142.32;60.67;;;;;;;0.52;100.00;100526.19;5055704;28;20025;-65
2023/03/06 07:29:53;;;;;;;134.48;61.28;;;;;;;0.53;100.00;100530.50;5054966;28;20055;-64
2023/03/06 07:32:19;;;;;;;140.95;59.95;;;;;;;0.55;100.00;100528.91;5055021;28;20021;-64
2023/03/06 07:34:45;;;;;;;135.07;58.33;;;;;;;0.57;100.00;100522.31;5055514;28;20392;-65
2023/03/06 07:37:10;;;;;;;142.75;61.67;;;;;;;0.60;100.00;100525.03;5054711;28;20025;-65
2023/03/06 07:39:36;;;;;;;137.75;61.90;;;;;;;0.65;100.00;100521.13;5055382;28;20025;-64
2023/03/06 07:42:01;;;;;;;147.27;64.03;;;;;;;0.75;100.00;100527.69;5054938;28;20028;-64
2023/03/06 07:44:27;;;;;;;142.77;64.35;;;;;;;0.75;100.00;100526.78;5054688;28;20092;-64
2023/03/06 07:46:52;;;;;;;137.27;61.40;;;;;;;0.76;100.00;100523.47;5055279;28;20035;-64
2023/03/06 07:49:18;;;;;;;150.13;64.70;;;;;;;0.79;100.00;100534.69;5055148;28;20100;-64
2023/03/06 07:51:43;;;;;;;146.00;64.05;;;;;;;0.82;100.00;100531.47;5054630;28;20041;-65
2023/03/06 07:54:09;;;;;;;146.98;65.88;;;;;;;0.80;100.00;100533.91;5054863;28;20353;-64
2023/03/06 07:56:34;;;;;;;145.10;64.40;;;;;;;0.85;100.00;100531.66;5055059;28;20048;-64
2023/03/06 07:59:00;;;;;;;151.48;64.40;;;;;;;0.89;100.00;100535.28;5054220;28;20365;-65
2023/03/06 08:01:26;;;;;;;157.40;67.60;;;;;;;0.95;100.00;100526.38;5055064;28;20037;-64
2023/03/06 08:03:52;;;;;;;168.05;70.78;;;;;;;1.01;100.00;100525.91;5054398;28;20044;-64
2023/03/06 08:06:23;;;;;;;156.82;69.82;;;;;;;1.06;100.00;100533.78;5054647;28;20021;-64
2023/03/06 08:08:50;;;;;;;157.50;69.05;;;;;;;1.12;100.00;100529.09;5054795;28;20020;-64
2023/03/06 08:11:18;;;;;;;161.30;67.72;;;;;;;1.19;100.00;100530.34;5054069;28;20028;-64
2023/03/06 08:13:43;;;;;;;;;;;;;;;1.28;100.00;100536.91;5054949;28;20119;-64
2023/03/06 08:16:09;;;;;;;156.07;65.85;;;;;;;1.33;100.00;100524.50;5054374;28;20011;-64
2023/03/06 08:18:34;;;;;;;150.18;64.40;;;;;;;1.41;100.00;100527.50;5054325;28;20542;-64
2023/03/06 08:21:05;;;;;;;139.85;64.30;;;;;;;1.45;100.00;100535.38;5054344;28;20029;-64
2023/03/06 08:23:31;;;;;;;128.18;61.08;;;;;;;1.52;100.00;100531.56;5054746;28;20029;-64
2023/03/06 08:26:09;;;;;;;140.55;63.40;;;;;;;1.58;100.00;100533.59;5052973;28;20021;-65
2023/03/06 08:28:35;;;;;;;129.07;61.88;;;;;;;1.57;100.00;100531.84;5054454;28;20076;-64
2023/03/06 08:31:12;;;;;;;124.53;58.55;;;;;;;1.58;100.00;100531.06;5054110;28;20060;-64
2023/03/06 08:33:38;;;;;;;127.97;59.80;;;;;;;1.54;100.00;100534.22;5054090;28;20071;-64
2023/03/06 08:36:04;;;;;;;119.88;56.65;;;;;;;1.56;100.00;100536.06;5053985;28;20074;-64
2023/03/06 08:38:29;;;;;;;128.57;59.53;;;;;;;1.59;100.00;100541.31;5054417;28;20025;-64
2023/03/06 08:40:54;;;;;;;125.38;60.15;;;;;;;1.61;100.00;100532.13;5053251;28;20377;-64
2023/03/06 08:43:20;;;;;;;124.15;60.30;;;;;;;1.71;100.00;100535.22;5054508;28;20025;-64
2023/03/06 08:45:51;;;;;;;125.22;59.95;;;;;;;2.03;100.00;100536.25;5054350;28;20388;-64
2023/03/06 08:48:16;;;;;;;108.47;55.33;;;;;;;2.27;100.00;100535.16;5053188;28;20405;-65
2023/03/06 08:50:41;;;;;;;114.05;56.42;;;;;;;2.51;100.00;100537.34;5054258;28;20032;-65
2023/03/06 08:53:06;;;;;;;107.00;54.10;;;;;;;2.51;100.00;100527.16;5053299;28;20108;-65
2023/03/06 08:55:35;;;;;;;87.25;46.05;;;;;;;2.48;100.00;100532.09;5053917;28;20373;-64
2023/03/06 08:58:01;;;;;;;77.65;42.35;;;;;;;2.57;100.00;100532.59;5053887;28;20083;-65
2023/03/06 09:00:26;;;;;;;79.20;43.63;;;;;;;2.76;100.00;100531.09;5053633;28;20021;-64
2023/03/06 09:02:52;;;;;;;83.72;46.28;;;;;;;2.98;100.00;100533.16;5053707;28;20102;-64
2023/03/06 09:05:18;;;;;;;83.95;46.75;;;;;;;3.11;100.00;100544.88;5053677;28;20051;-64
2023/03/06 09:07:44;;;;;;;83.38;48.40;;;;;;;3.26;100.00;100532.97;5053338;28;20031;-64
2023/03/06 09:10:14;;;;;;;76.72;44.55;;;;;;;3.32;100.00;100541.75;5053303;28;20025;-64
2023/03/06 09:12:40;;;;;;;81.35;44.20;;;;;;;3.38;100.00;100532.78;5053665;28;20476;-64
2023/03/06 09:15:05;;;;;;;73.43;41.97;;;;;;;3.45;100.00;100539.09;5052723;28;20036;-64
2023/03/06 09:17:31;;;;;;;63.28;37.28;;;;;;;3.46;100.00;100535.75;5053458;28;20028;-64
2023/03/06 09:19:56;;;;;;;69.97;40.78;;;;;;;3.59;100.00;100543.22;5053351;28;20021;-64
2023/03/06 09:22:21;;;;;;;74.70;44.15;;;;;;;3.57;100.00;100534.63;5053159;28;20024;-64
2023/03/06 09:24:47;;;;;;;76.78;41.88;;;;;;;3.51;100.00;100538.53;5053258;28;20020;-64
2023/03/06 09:27:13;;;;;;;71.80;40.67;;;;;;;3.37;100.00;100540.31;5053450;28;20360;-63
2023/03/06 09:29:38;;;;;;;70.35;39.22;;;;;;;3.25;100.00;100550.75;5053021;28;20025;-64
2023/03/06 09:32:03;;;;;;;66.10;38.45;;;;;;;3.12;100.00;100545.00;5052766;28;20095;-64
2023/03/06 09:34:29;;;;;;;66.97;38.88;;;;;;;3.04;100.00;100545.34;5053327;28;20104;-64
2023/03/06 09:36:54;;;;;;;73.97;40.83;;;;;;;2.94;100.00;100542.31;5052288;28;20021;-64
2023/03/06 09:39:19;;;;;;;72.90;40.13;;;;;;;2.87;100.00;100547.84;5052963;28;20033;-64
2023/03/06 09:41:48;;;;;;;66.60;38.85;;;;;;;2.79;100.00;100544.88;5053354;28;20033;-64
2023/03/06 09:44:24;;;;;;;64.95;37.22;;;;;;;2.82;100.00;100549.25;5052252;28;20032;-64
2023/03/06 09:47:37;;;;;;;61.40;38.35;;;;;;;2.77;100.00;100540.47;5053236;28;20060;-64
2023/03/06 09:50:30;;;;;;;64.15;36.40;;;;;;;2.77;100.00;100532.84;5052402;28;20021;-64
2023/03/06 09:53:04;;;;;;;70.35;39.33;;;;;;;2.78;100.00;100537.16;5052392;28;20048;-64
2023/03/06 09:55:32;;;;;;;68.40;39.47;;;;;;;2.80;100.00;100545.72;5053037;28;20063;-64
2023/03/06 09:58:17;;;;;;;;;;;;;;;2.91;100.00;100547.22;5052336;28;20036;-64
2023/03/06 10:00:54;;;;;;;61.92;38.30;;;;;;;2.74;100.00;100543.72;5053138;28;19936;-64
2023/03/06 10:03:29;;;;;;;62.30;36.83;;;;;;;2.77;100.00;100545.56;5052518;28;20044;-64
2023/03/06 10:06:24;;;;;;;68.25;38.05;;;;;;;2.86;100.00;100546.09;5052407;28;20106;-64
2023/03/06 10:09:18;;;;;;;70.60;38.20;;;;;;;2.99;100.00;100541.69;5050505;28;20033;-64
2023/03/06 10:11:57;;;;;;;58.92;35.22;;;;;;;3.04;100.00;100536.03;5052141;28;20048;-64
2023/03/06 10:14:43;;;;;;;63.17;35.28;;;;;;;3.11;100.00;100537.25;5052554;28;20029;-64
2023/03/06 10:17:21;;;;;;;53.70;32.95;;;;;;;3.24;100.00;100542.22;5052455;28;20029;-64
2023/03/06 10:19:48;;;;;;;57.03;32.15;;;;;;;3.33;100.00;100538.41;5052086;28;20029;-64
2023/03/06 10:22:25;;;;;;;56.13;33.87;;;;;;;3.52;100.00;100537.72;5052457;28;20032;-64
2023/03/06 10:24:53;;;;;;;56.35;32.75;;;;;;;3.60;100.00;100529.69;5051938;28;20029;-64
2023/03/06 10:27:22;;;;;;;51.75;32.13;;;;;;;3.68;100.00;100529.22;5052132;28;20039;-63
2023/03/06 10:30:23;;;;;;;52.00;30.63;;;;;;;3.83;100.00;100532.56;5052517;28;20481;-64
2023/03/06 10:33:02;;;;;;;50.47;31.08;;;;;;;4.11;100.00;100527.19;5040722;28;20064;-63
2023/03/06 10:35:50;;;;;;;50.03;30.00;;;;;;;4.45;100.00;100525.44;5052235;28;20171;-64
2023/03/06 10:38:36;;;;;;;43.97;27.83;;;;;;;4.60;100.00;100515.97;5052368;28;20047;-63
2023/03/06 10:41:27;;;;;;;41.10;27.75;;;;;;;5.07;100.00;100508.84;5051921;28;20096;-63
2023/03/06 10:43:59;;;;;;;40.70;24.95;;;;;;;5.05;100.00;100522.34;5052038;28;20493;-63
2023/03/06 10:46:33;;;;;;;42.55;24.92;;;;;;;5.06;100.00;100518.97;5051990;28;20033;-63
2023/03/06 10:49:01;;;;;;;39.35;24.80;;;;;;;5.27;99.49;100516.53;5054678;28;20021;-63
2023/03/06 10:51:28;;;;;;;38.45;23.35;;;;;;;5.47;98.06;100525.09;5056519;28;20036;-64
2023/03/06 10:53:56;;;;;;;38.47;23.45;;;;;;;5.57;97.45;100524.69;5055750;28;20029;-65
2023/03/06 10:56:37;;;;;;;37.63;23.05;;;;;;;6.08;97.48;100523.50;5056094;28;20017;-63
2023/03/06 10:59:28;;;;;;;35.53;20.13;;;;;;;6.44;92.34;100523.28;5056243;28;20036;-64
2023/03/06 11:01:56;;;;;;;34.92;22.13;;;;;;;6.84;92.40;100524.03;5055644;28;20029;-64
2023/03/06 11:04:28;;;;;;;34.33;20.85;;;;;;;6.61;87.25;100524.00;5056007;28;20519;-64
2023/03/06 11:07:29;;;;;;;30.75;20.23;;;;;;;6.38;89.76;100525.63;5055603;28;20028;-64